sensor_id;sensor_type;location;lat;lon;timestamp;P1;durP1;ratioP1;P2;durP2;ratioP2
70102;SDS011;57470;50.034;15.256;2023-04-01T00:01:44;1.88;;;0.40;;
70102;SDS011;57470;50.034;15.256;2023-04-01T00:04:09;6.27;;;0.63;;
70102;SDS011;57470;50.034;15.256;2023-04-01T00:06:35;2.97;;;0.43;;
70102;SDS011;57470;50.034;15.256;2023-04-01T00:09:00;3.00;;;1.00;;
70102;SDS011;57470;50.034;15.256;2023-04-01T00:11:26;11.20;;;0.97;;
70102;SDS011;57470;50.034;15.256;2023-04-01T00:13:52;3.35;;;0.98;;
70102;SDS011;57470;50.034;15.256;2023-04-01T00:16:18;2.83;;;0.93;;
70102;SDS011;57470;50.034;15.256;2023-04-01T00:18:44;2.40;;;0.60;;
70102;SDS011;57470;50.034;15.256;2023-04-01T00:21:11;1.75;;;0.40;;
70102;SDS011;57470;50.034;15.256;2023-04-01T00:23:37;2.30;;;0.63;;
70102;SDS011;57470;50.034;15.256;2023-04-01T00:26:02;6.27;;;0.80;;
70102;SDS011;57470;50.034;15.256;2023-04-01T00:28:28;2.22;;;0.60;;
70102;SDS011;57470;50.034;15.256;2023-04-01T00:30:54;2.88;;;0.85;;
70102;SDS011;57470;50.034;15.256;2023-04-01T00:33:20;1.93;;;0.50;;
70102;SDS011;57470;50.034;15.256;2023-04-01T00:35:46;4.90;;;0.90;;
70102;SDS011;57470;50.034;15.256;2023-04-01T00:38:11;2.15;;;0.52;;
70102;SDS011;57470;50.034;15.256;2023-04-01T00:40:39;2.10;;;0.50;;
70102;SDS011;57470;50.034;15.256;2023-04-01T00:43:14;1.93;;;0.40;;
70102;SDS011;57470;50.034;15.256;2023-04-01T00:45:43;2.47;;;0.70;;
70102;SDS011;57470;50.034;15.256;2023-04-01T00:48:16;2.30;;;0.70;;
70102;SDS011;57470;50.034;15.256;2023-04-01T00:50:48;2.00;;;0.50;;
70102;SDS011;57470;50.034;15.256;2023-04-01T00:53:17;2.38;;;0.60;;
70102;SDS011;57470;50.034;15.256;2023-04-01T00:55:47;2.37;;;0.53;;
70102;SDS011;57470;50.034;15.256;2023-04-01T00:58:17;5.00;;;0.55;;
70102;SDS011;57470;50.034;15.256;2023-04-01T01:00:45;2.20;;;0.45;;
70102;SDS011;57470;50.034;15.256;2023-04-01T01:03:13;2.45;;;0.60;;
70102;SDS011;57470;50.034;15.256;2023-04-01T01:11:22;2.50;;;0.70;;
70102;SDS011;57470;50.034;15.256;2023-04-01T01:16:59;2.15;;;0.65;;
70102;SDS011;57470;50.034;15.256;2023-04-01T01:28:36;2.50;;;0.60;;
70102;SDS011;57470;50.034;15.256;2023-04-01T01:33:35;1.43;;;0.20;;
70102;SDS011;57470;50.034;15.256;2023-04-01T01:36:12;1.35;;;0.20;;
70102;SDS011;57470;50.034;15.256;2023-04-01T01:38:40;2.85;;;0.80;;
70102;SDS011;57470;50.034;15.256;2023-04-01T01:41:07;1.95;;;0.45;;
70102;SDS011;57470;50.034;15.256;2023-04-01T01:43:39;2.47;;;0.73;;
70102;SDS011;57470;50.034;15.256;2023-04-01T01:46:09;1.70;;;0.40;;
70102;SDS011;57470;50.034;15.256;2023-04-01T01:48:38;3.33;;;0.50;;
70102;SDS011;57470;50.034;15.256;2023-04-01T01:51:05;2.38;;;0.68;;
70102;SDS011;57470;50.034;15.256;2023-04-01T01:53:31;5.75;;;0.70;;
70102;SDS011;57470;50.034;15.256;2023-04-01T01:55:57;2.73;;;0.83;;
70102;SDS011;57470;50.034;15.256;2023-04-01T01:58:25;2.80;;;0.80;;
70102;SDS011;57470;50.034;15.256;2023-04-01T02:00:57;2.25;;;0.40;;
70102;SDS011;57470;50.034;15.256;2023-04-01T02:03:30;2.88;;;1.13;;
70102;SDS011;57470;50.034;15.256;2023-04-01T02:06:01;1.95;;;0.43;;
70102;SDS011;57470;50.034;15.256;2023-04-01T02:08:36;2.30;;;0.53;;
70102;SDS011;57470;50.034;15.256;2023-04-01T02:11:17;2.55;;;0.80;;
70102;SDS011;57470;50.034;15.256;2023-04-01T02:13:52;1.98;;;0.50;;
70102;SDS011;57470;50.034;15.256;2023-04-01T02:17:12;2.17;;;0.60;;
70102;SDS011;57470;50.034;15.256;2023-04-01T02:22:26;2.47;;;0.70;;
70102;SDS011;57470;50.034;15.256;2023-04-01T02:25:01;3.35;;;0.47;;
70102;SDS011;57470;50.034;15.256;2023-04-01T02:27:33;2.63;;;0.73;;
70102;SDS011;57470;50.034;15.256;2023-04-01T02:30:00;2.47;;;0.57;;
70102;SDS011;57470;50.034;15.256;2023-04-01T02:32:27;2.65;;;0.75;;
70102;SDS011;57470;50.034;15.256;2023-04-01T02:34:57;3.40;;;0.60;;
70102;SDS011;57470;50.034;15.256;2023-04-01T02:37:25;2.42;;;0.50;;
70102;SDS011;57470;50.034;15.256;2023-04-01T02:39:52;3.15;;;0.70;;
70102;SDS011;57470;50.034;15.256;2023-04-01T02:42:19;1.80;;;0.30;;
70102;SDS011;57470;50.034;15.256;2023-04-01T02:44:46;1.95;;;0.50;;
70102;SDS011;57470;50.034;15.256;2023-04-01T02:47:12;3.10;;;0.67;;
70102;SDS011;57470;50.034;15.256;2023-04-01T02:49:39;2.10;;;0.60;;
70102;SDS011;57470;50.034;15.256;2023-04-01T02:52:07;2.05;;;0.50;;
70102;SDS011;57470;50.034;15.256;2023-04-01T02:54:33;2.67;;;0.60;;
70102;SDS011;57470;50.034;15.256;2023-04-01T02:56:58;2.07;;;0.60;;
70102;SDS011;57470;50.034;15.256;2023-04-01T02:59:24;2.40;;;0.67;;
70102;SDS011;57470;50.034;15.256;2023-04-01T03:01:49;2.20;;;0.50;;
70102;SDS011;57470;50.034;15.256;2023-04-01T03:04:14;1.77;;;0.40;;
70102;SDS011;57470;50.034;15.256;2023-04-01T03:06:40;1.80;;;0.40;;
70102;SDS011;57470;50.034;15.256;2023-04-01T03:09:05;1.90;;;0.43;;
70102;SDS011;57470;50.034;15.256;2023-04-01T03:11:31;2.60;;;0.70;;
70102;SDS011;57470;50.034;15.256;2023-04-01T03:13:56;2.80;;;0.70;;
70102;SDS011;57470;50.034;15.256;2023-04-01T03:16:22;1.97;;;0.53;;
70102;SDS011;57470;50.034;15.256;2023-04-01T03:18:47;3.05;;;0.80;;
70102;SDS011;57470;50.034;15.256;2023-04-01T03:21:23;1.40;;;0.30;;
70102;SDS011;57470;50.034;15.256;2023-04-01T03:23:49;2.28;;;0.57;;
70102;SDS011;57470;50.034;15.256;2023-04-01T03:26:15;2.13;;;0.57;;
70102;SDS011;57470;50.034;15.256;2023-04-01T03:28:42;2.07;;;0.50;;
70102;SDS011;57470;50.034;15.256;2023-04-01T03:31:08;2.05;;;0.50;;
70102;SDS011;57470;50.034;15.256;2023-04-01T03:33:34;3.03;;;0.85;;
70102;SDS011;57470;50.034;15.256;2023-04-01T03:35:59;2.20;;;0.70;;
70102;SDS011;57470;50.034;15.256;2023-04-01T03:38:25;2.30;;;0.73;;
70102;SDS011;57470;50.034;15.256;2023-04-01T03:40:50;2.07;;;0.50;;
70102;SDS011;57470;50.034;15.256;2023-04-01T03:43:16;2.00;;;0.50;;
70102;SDS011;57470;50.034;15.256;2023-04-01T03:45:48;2.33;;;0.60;;
70102;SDS011;57470;50.034;15.256;2023-04-01T03:48:15;3.10;;;0.60;;
70102;SDS011;57470;50.034;15.256;2023-04-01T03:50:41;2.72;;;0.77;;
70102;SDS011;57470;50.034;15.256;2023-04-01T03:53:06;2.00;;;0.50;;
70102;SDS011;57470;50.034;15.256;2023-04-01T03:55:32;2.28;;;0.63;;
70102;SDS011;57470;50.034;15.256;2023-04-01T03:57:58;1.90;;;0.30;;
70102;SDS011;57470;50.034;15.256;2023-04-01T04:00:24;2.53;;;0.50;;
70102;SDS011;57470;50.034;15.256;2023-04-01T04:02:50;2.20;;;0.57;;
70102;SDS011;57470;50.034;15.256;2023-04-01T04:05:15;2.63;;;0.70;;
70102;SDS011;57470;50.034;15.256;2023-04-01T04:07:41;3.20;;;1.00;;
70102;SDS011;57470;50.034;15.256;2023-04-01T04:10:06;2.17;;;0.67;;
70102;SDS011;57470;50.034;15.256;2023-04-01T04:12:32;4.50;;;0.75;;
70102;SDS011;57470;50.034;15.256;2023-04-01T04:14:57;2.60;;;0.70;;
70102;SDS011;57470;50.034;15.256;2023-04-01T04:17:23;2.67;;;0.60;;
70102;SDS011;57470;50.034;15.256;2023-04-01T04:19:48;2.17;;;0.57;;
70102;SDS011;57470;50.034;15.256;2023-04-01T04:22:14;2.53;;;0.60;;
70102;SDS011;57470;50.034;15.256;2023-04-01T04:24:39;2.03;;;0.70;;
70102;SDS011;57470;50.034;15.256;2023-04-01T04:27:05;2.03;;;0.40;;
70102;SDS011;57470;50.034;15.256;2023-04-01T04:29:30;2.10;;;0.60;;
70102;SDS011;57470;50.034;15.256;2023-04-01T04:31:56;1.80;;;0.40;;
70102;SDS011;57470;50.034;15.256;2023-04-01T04:34:21;3.10;;;0.70;;
70102;SDS011;57470;50.034;15.256;2023-04-01T04:36:47;2.10;;;0.60;;
70102;SDS011;57470;50.034;15.256;2023-04-01T04:39:13;2.90;;;0.75;;
70102;SDS011;57470;50.034;15.256;2023-04-01T04:41:39;2.50;;;0.60;;
70102;SDS011;57470;50.034;15.256;2023-04-01T04:44:06;2.63;;;0.70;;
70102;SDS011;57470;50.034;15.256;2023-04-01T04:46:32;2.83;;;0.82;;
70102;SDS011;57470;50.034;15.256;2023-04-01T04:48:57;2.10;;;0.53;;
70102;SDS011;57470;50.034;15.256;2023-04-01T04:51:23;2.20;;;0.60;;
70102;SDS011;57470;50.034;15.256;2023-04-01T04:53:48;5.03;;;0.60;;
70102;SDS011;57470;50.034;15.256;2023-04-01T04:56:18;2.43;;;0.50;;
70102;SDS011;57470;50.034;15.256;2023-04-01T04:58:45;2.70;;;0.50;;
70102;SDS011;57470;50.034;15.256;2023-04-01T05:01:11;2.05;;;0.57;;
70102;SDS011;57470;50.034;15.256;2023-04-01T05:03:38;3.10;;;1.00;;
70102;SDS011;57470;50.034;15.256;2023-04-01T05:06:04;1.95;;;0.40;;
70102;SDS011;57470;50.034;15.256;2023-04-01T05:08:32;3.22;;;0.60;;
70102;SDS011;57470;50.034;15.256;2023-04-01T05:11:00;2.58;;;0.73;;
70102;SDS011;57470;50.034;15.256;2023-04-01T05:13:27;2.10;;;0.60;;
70102;SDS011;57470;50.034;15.256;2023-04-01T05:15:53;4.32;;;0.57;;
70102;SDS011;57470;50.034;15.256;2023-04-01T05:18:19;1.52;;;0.30;;
70102;SDS011;57470;50.034;15.256;2023-04-01T05:20:54;2.03;;;0.40;;
70102;SDS011;57470;50.034;15.256;2023-04-01T05:23:20;2.15;;;0.52;;
70102;SDS011;57470;50.034;15.256;2023-04-01T05:25:50;2.55;;;0.57;;
70102;SDS011;57470;50.034;15.256;2023-04-01T05:28:17;7.25;;;0.77;;
70102;SDS011;57470;50.034;15.256;2023-04-01T05:30:44;4.07;;;1.05;;
70102;SDS011;57470;50.034;15.256;2023-04-01T05:33:10;2.50;;;0.73;;
70102;SDS011;57470;50.034;15.256;2023-04-01T05:35:37;1.95;;;0.32;;
70102;SDS011;57470;50.034;15.256;2023-04-01T05:38:03;2.05;;;0.40;;
70102;SDS011;57470;50.034;15.256;2023-04-01T05:40:29;2.47;;;0.65;;
70102;SDS011;57470;50.034;15.256;2023-04-01T05:42:54;6.00;;;1.63;;
70102;SDS011;57470;50.034;15.256;2023-04-01T05:45:20;14.20;;;4.50;;
70102;SDS011;57470;50.034;15.256;2023-04-01T05:47:45;20.25;;;7.05;;
70102;SDS011;57470;50.034;15.256;2023-04-01T05:50:11;18.40;;;8.73;;
70102;SDS011;57470;50.034;15.256;2023-04-01T05:52:37;22.02;;;8.77;;
70102;SDS011;57470;50.034;15.256;2023-04-01T05:55:04;37.27;;;10.80;;
70102;SDS011;57470;50.034;15.256;2023-04-01T05:57:30;11.27;;;3.65;;
70102;SDS011;57470;50.034;15.256;2023-04-01T05:59:55;11.33;;;4.47;;
70102;SDS011;57470;50.034;15.256;2023-04-01T06:02:21;10.67;;;4.17;;
70102;SDS011;57470;50.034;15.256;2023-04-01T06:04:46;7.72;;;2.72;;
70102;SDS011;57470;50.034;15.256;2023-04-01T06:07:16;14.30;;;1.83;;
70102;SDS011;57470;50.034;15.256;2023-04-01T06:09:43;3.47;;;1.23;;
70102;SDS011;57470;50.034;15.256;2023-04-01T06:20:24;8.87;;;1.97;;
70102;SDS011;57470;50.034;15.256;2023-04-01T06:36:52;5.13;;;2.10;;
70102;SDS011;57470;50.034;15.256;2023-04-01T06:42:39;5.63;;;1.42;;
70102;SDS011;57470;50.034;15.256;2023-04-01T06:45:30;7.47;;;2.03;;
70102;SDS011;57470;50.034;15.256;2023-04-01T06:53:49;3.83;;;1.38;;
70102;SDS011;57470;50.034;15.256;2023-04-01T06:56:17;5.60;;;1.65;;
70102;SDS011;57470;50.034;15.256;2023-04-01T06:58:50;3.13;;;0.80;;
70102;SDS011;57470;50.034;15.256;2023-04-01T07:01:18;3.37;;;1.10;;
70102;SDS011;57470;50.034;15.256;2023-04-01T07:03:55;3.42;;;1.25;;
70102;SDS011;57470;50.034;15.256;2023-04-01T07:06:34;4.07;;;1.20;;
70102;SDS011;57470;50.034;15.256;2023-04-01T07:09:08;4.18;;;1.15;;
70102;SDS011;57470;50.034;15.256;2023-04-01T07:11:38;3.22;;;0.73;;
70102;SDS011;57470;50.034;15.256;2023-04-01T07:16:58;7.72;;;0.65;;
70102;SDS011;57470;50.034;15.256;2023-04-01T07:19:32;2.85;;;0.50;;
70102;SDS011;57470;50.034;15.256;2023-04-01T07:24:51;3.45;;;0.98;;
70102;SDS011;57470;50.034;15.256;2023-04-01T07:27:19;3.23;;;1.00;;
70102;SDS011;57470;50.034;15.256;2023-04-01T07:29:44;3.70;;;0.80;;
70102;SDS011;57470;50.034;15.256;2023-04-01T07:40:16;9.60;;;0.80;;
70102;SDS011;57470;50.034;15.256;2023-04-01T07:46:04;4.65;;;1.60;;
70102;SDS011;57470;50.034;15.256;2023-04-01T07:57:01;5.97;;;2.13;;
70102;SDS011;57470;50.034;15.256;2023-04-01T07:59:40;3.83;;;1.33;;
70102;SDS011;57470;50.034;15.256;2023-04-01T08:07:28;3.20;;;1.00;;
70102;SDS011;57470;50.034;15.256;2023-04-01T08:10:11;3.53;;;1.27;;
70102;SDS011;57470;50.034;15.256;2023-04-01T08:15:31;3.20;;;0.80;;
70102;SDS011;57470;50.034;15.256;2023-04-01T08:18:04;2.22;;;0.60;;
70102;SDS011;57470;50.034;15.256;2023-04-01T08:23:27;4.50;;;0.80;;
70102;SDS011;57470;50.034;15.256;2023-04-01T08:28:37;3.67;;;0.98;;
70102;SDS011;57470;50.034;15.256;2023-04-01T08:31:14;2.55;;;0.65;;
70102;SDS011;57470;50.034;15.256;2023-04-01T08:33:45;4.07;;;0.65;;
70102;SDS011;57470;50.034;15.256;2023-04-01T08:36:19;2.67;;;0.63;;
70102;SDS011;57470;50.034;15.256;2023-04-01T08:41:39;1.83;;;0.45;;
70102;SDS011;57470;50.034;15.256;2023-04-01T08:58:37;4.25;;;1.25;;
70102;SDS011;57470;50.034;15.256;2023-04-01T09:01:45;4.93;;;1.38;;
70102;SDS011;57470;50.034;15.256;2023-04-01T09:16:01;3.13;;;1.00;;
70102;SDS011;57470;50.034;15.256;2023-04-01T09:18:49;4.97;;;1.03;;
70102;SDS011;57470;50.034;15.256;2023-04-01T09:22:17;3.05;;;1.00;;
70102;SDS011;57470;50.034;15.256;2023-04-01T09:37:37;3.15;;;0.80;;
70102;SDS011;57470;50.034;15.256;2023-04-01T09:43:02;3.42;;;0.95;;
70102;SDS011;57470;50.034;15.256;2023-04-01T09:45:58;4.80;;;1.05;;
70102;SDS011;57470;50.034;15.256;2023-04-01T09:49:11;3.17;;;0.60;;
70102;SDS011;57470;50.034;15.256;2023-04-01T09:52:02;2.20;;;0.50;;
70102;SDS011;57470;50.034;15.256;2023-04-01T10:01:20;2.25;;;0.45;;
70102;SDS011;57470;50.034;15.256;2023-04-01T10:17:06;1.60;;;0.23;;
70102;SDS011;57470;50.034;15.256;2023-04-01T10:20:12;3.17;;;1.05;;
70102;SDS011;57470;50.034;15.256;2023-04-01T10:47:58;2.55;;;0.63;;
70102;SDS011;57470;50.034;15.256;2023-04-01T10:53:43;3.63;;;0.47;;
70102;SDS011;57470;50.034;15.256;2023-04-01T10:56:32;11.10;;;0.93;;
70102;SDS011;57470;50.034;15.256;2023-04-01T11:04:25;3.72;;;1.20;;
70102;SDS011;57470;50.034;15.256;2023-04-01T11:15:37;1.90;;;0.30;;
70102;SDS011;57470;50.034;15.256;2023-04-01T11:23:47;2.67;;;0.70;;
70102;SDS011;57470;50.034;15.256;2023-04-01T11:26:38;5.00;;;0.60;;
70102;SDS011;57470;50.034;15.256;2023-04-01T11:29:41;4.80;;;0.85;;
70102;SDS011;57470;50.034;15.256;2023-04-01T11:43:53;3.22;;;0.80;;
70102;SDS011;57470;50.034;15.256;2023-04-01T11:48:54;2.63;;;0.60;;
70102;SDS011;57470;50.034;15.256;2023-04-01T12:00:41;3.33;;;0.70;;
70102;SDS011;57470;50.034;15.256;2023-04-01T12:08:39;2.77;;;0.63;;
70102;SDS011;57470;50.034;15.256;2023-04-01T12:12:10;2.47;;;0.40;;
70102;SDS011;57470;50.034;15.256;2023-04-01T12:14:33;4.00;;;1.23;;
70102;SDS011;57470;50.034;15.256;2023-04-01T12:17:34;2.90;;;0.90;;
70102;SDS011;57470;50.034;15.256;2023-04-01T12:20:18;2.92;;;0.70;;
70102;SDS011;57470;50.034;15.256;2023-04-01T12:28:01;2.55;;;0.65;;
70102;SDS011;57470;50.034;15.256;2023-04-01T12:30:33;2.92;;;0.88;;
70102;SDS011;57470;50.034;15.256;2023-04-01T12:33:14;8.20;;;0.77;;
70102;SDS011;57470;50.034;15.256;2023-04-01T12:41:09;4.07;;;0.70;;
70102;SDS011;57470;50.034;15.256;2023-04-01T12:46:11;4.40;;;0.73;;
70102;SDS011;57470;50.034;15.256;2023-04-01T12:57:18;2.97;;;0.85;;
70102;SDS011;57470;50.034;15.256;2023-04-01T13:09:08;3.13;;;0.82;;
70102;SDS011;57470;50.034;15.256;2023-04-01T13:14:49;2.75;;;0.50;;
70102;SDS011;57470;50.034;15.256;2023-04-01T13:17:06;4.10;;;0.47;;
70102;SDS011;57470;50.034;15.256;2023-04-01T13:19:51;2.33;;;0.63;;
70102;SDS011;57470;50.034;15.256;2023-04-01T13:28:19;2.58;;;0.63;;
70102;SDS011;57470;50.034;15.256;2023-04-01T13:41:30;3.25;;;0.70;;
70102;SDS011;57470;50.034;15.256;2023-04-01T13:44:12;4.20;;;0.50;;
70102;SDS011;57470;50.034;15.256;2023-04-01T13:52:52;3.53;;;0.50;;
70102;SDS011;57470;50.034;15.256;2023-04-01T14:01:00;3.50;;;0.85;;
70102;SDS011;57470;50.034;15.256;2023-04-01T14:03:30;3.67;;;1.23;;
70102;SDS011;57470;50.034;15.256;2023-04-01T14:06:16;3.20;;;1.00;;
70102;SDS011;57470;50.034;15.256;2023-04-01T14:22:52;2.42;;;0.70;;
70102;SDS011;57470;50.034;15.256;2023-04-01T14:48:00;11.15;;;2.80;;
70102;SDS011;57470;50.034;15.256;2023-04-01T14:50:49;3.58;;;1.27;;
70102;SDS011;57470;50.034;15.256;2023-04-01T14:55:55;8.10;;;3.75;;
70102;SDS011;57470;50.034;15.256;2023-04-01T14:58:23;5.30;;;2.33;;
70102;SDS011;57470;50.034;15.256;2023-04-01T15:00:57;3.60;;;1.13;;
70102;SDS011;57470;50.034;15.256;2023-04-01T15:09:14;5.07;;;1.92;;
70102;SDS011;57470;50.034;15.256;2023-04-01T15:20:10;3.20;;;0.63;;
70102;SDS011;57470;50.034;15.256;2023-04-01T15:28:17;7.63;;;2.58;;
70102;SDS011;57470;50.034;15.256;2023-04-01T15:31:35;3.47;;;1.23;;
70102;SDS011;57470;50.034;15.256;2023-04-01T15:36:45;3.58;;;0.80;;
70102;SDS011;57470;50.034;15.256;2023-04-01T15:39:37;4.80;;;1.77;;
70102;SDS011;57470;50.034;15.256;2023-04-01T15:50:42;7.18;;;1.48;;
70102;SDS011;57470;50.034;15.256;2023-04-01T15:55:59;3.40;;;0.77;;
70102;SDS011;57470;50.034;15.256;2023-04-01T15:58:36;2.40;;;0.60;;
70102;SDS011;57470;50.034;15.256;2023-04-01T16:04:12;6.68;;;1.17;;
70102;SDS011;57470;50.034;15.256;2023-04-01T16:15:13;5.50;;;0.77;;
70102;SDS011;57470;50.034;15.256;2023-04-01T16:28:53;2.57;;;0.43;;
70102;SDS011;57470;50.034;15.256;2023-04-01T16:31:42;2.10;;;0.50;;
70102;SDS011;57470;50.034;15.256;2023-04-01T16:34:18;3.97;;;0.90;;
70102;SDS011;57470;50.034;15.256;2023-04-01T16:37:03;2.92;;;0.82;;
70102;SDS011;57470;50.034;15.256;2023-04-01T16:47:53;9.13;;;2.38;;
70102;SDS011;57470;50.034;15.256;2023-04-01T16:50:55;9.30;;;2.25;;
70102;SDS011;57470;50.034;15.256;2023-04-01T16:53:34;8.80;;;2.42;;
70102;SDS011;57470;50.034;15.256;2023-04-01T16:56:11;6.37;;;1.73;;
70102;SDS011;57470;50.034;15.256;2023-04-01T17:15:31;34.13;;;8.73;;
70102;SDS011;57470;50.034;15.256;2023-04-01T17:21:16;15.50;;;4.30;;
70102;SDS011;57470;50.034;15.256;2023-04-01T17:24:21;17.23;;;4.43;;
70102;SDS011;57470;50.034;15.256;2023-04-01T17:27:40;23.17;;;5.63;;
70102;SDS011;57470;50.034;15.256;2023-04-01T17:45:31;5.97;;;1.45;;
70102;SDS011;57470;50.034;15.256;2023-04-01T17:48:23;4.27;;;1.20;;
70102;SDS011;57470;50.034;15.256;2023-04-01T17:59:38;4.75;;;1.40;;
70102;SDS011;57470;50.034;15.256;2023-04-01T18:02:19;3.23;;;0.80;;
70102;SDS011;57470;50.034;15.256;2023-04-01T18:08:15;3.47;;;0.95;;
70102;SDS011;57470;50.034;15.256;2023-04-01T18:16:52;7.80;;;2.50;;
70102;SDS011;57470;50.034;15.256;2023-04-01T18:22:19;5.47;;;2.28;;
70102;SDS011;57470;50.034;15.256;2023-04-01T18:24:59;5.95;;;1.80;;
70102;SDS011;57470;50.034;15.256;2023-04-01T18:27:36;4.20;;;1.38;;
70102;SDS011;57470;50.034;15.256;2023-04-01T18:30:21;5.33;;;1.90;;
70102;SDS011;57470;50.034;15.256;2023-04-01T18:33:04;7.97;;;2.38;;
70102;SDS011;57470;50.034;15.256;2023-04-01T18:38:31;3.47;;;1.10;;
70102;SDS011;57470;50.034;15.256;2023-04-01T18:41:15;3.88;;;1.13;;
70102;SDS011;57470;50.034;15.256;2023-04-01T18:49:44;4.32;;;1.08;;
70102;SDS011;57470;50.034;15.256;2023-04-01T18:57:46;4.77;;;2.17;;
70102;SDS011;57470;50.034;15.256;2023-04-01T19:00:19;6.82;;;1.83;;
70102;SDS011;57470;50.034;15.256;2023-04-01T19:05:31;3.92;;;1.05;;
70102;SDS011;57470;50.034;15.256;2023-04-01T19:08:19;4.85;;;1.95;;
70102;SDS011;57470;50.034;15.256;2023-04-01T19:16:53;4.88;;;1.52;;
70102;SDS011;57470;50.034;15.256;2023-04-01T19:25:12;4.93;;;2.00;;
70102;SDS011;57470;50.034;15.256;2023-04-01T19:27:48;4.07;;;1.38;;
70102;SDS011;57470;50.034;15.256;2023-04-01T19:30:41;8.20;;;2.17;;
70102;SDS011;57470;50.034;15.256;2023-04-01T19:38:40;5.43;;;1.95;;
70102;SDS011;57470;50.034;15.256;2023-04-01T19:46:20;6.55;;;2.45;;
70102;SDS011;57470;50.034;15.256;2023-04-01T19:48:57;6.03;;;2.15;;
70102;SDS011;57470;50.034;15.256;2023-04-01T19:51:31;6.70;;;2.25;;
70102;SDS011;57470;50.034;15.256;2023-04-01T19:56:53;8.57;;;3.10;;
70102;SDS011;57470;50.034;15.256;2023-04-01T19:59:41;6.15;;;2.42;;
70102;SDS011;57470;50.034;15.256;2023-04-01T20:04:41;6.50;;;2.10;;
70102;SDS011;57470;50.034;15.256;2023-04-01T20:07:12;6.63;;;2.47;;
70102;SDS011;57470;50.034;15.256;2023-04-01T20:12:58;8.70;;;2.63;;
70102;SDS011;57470;50.034;15.256;2023-04-01T20:15:31;12.10;;;3.42;;
70102;SDS011;57470;50.034;15.256;2023-04-01T20:18:04;10.65;;;4.03;;
70102;SDS011;57470;50.034;15.256;2023-04-01T20:20:39;9.13;;;3.00;;
70102;SDS011;57470;50.034;15.256;2023-04-01T20:26:23;7.67;;;3.43;;
70102;SDS011;57470;50.034;15.256;2023-04-01T20:31:58;7.95;;;1.80;;
70102;SDS011;57470;50.034;15.256;2023-04-01T20:37:07;4.47;;;1.60;;
70102;SDS011;57470;50.034;15.256;2023-04-01T20:47:43;10.75;;;3.25;;
70102;SDS011;57470;50.034;15.256;2023-04-01T20:53:04;8.80;;;3.38;;
70102;SDS011;57470;50.034;15.256;2023-04-01T20:58:43;10.40;;;4.27;;
70102;SDS011;57470;50.034;15.256;2023-04-01T21:01:59;10.15;;;3.15;;
70102;SDS011;57470;50.034;15.256;2023-04-01T21:07:08;13.43;;;4.25;;
70102;SDS011;57470;50.034;15.256;2023-04-01T21:18:11;9.15;;;2.08;;
70102;SDS011;57470;50.034;15.256;2023-04-01T21:25:58;5.37;;;1.23;;
70102;SDS011;57470;50.034;15.256;2023-04-01T21:34:40;3.58;;;0.80;;
70102;SDS011;57470;50.034;15.256;2023-04-01T21:37:32;2.38;;;0.68;;
70102;SDS011;57470;50.034;15.256;2023-04-01T21:43:15;2.58;;;0.57;;
70102;SDS011;57470;50.034;15.256;2023-04-01T21:45:57;3.95;;;1.25;;
70102;SDS011;57470;50.034;15.256;2023-04-01T21:57:57;4.47;;;0.85;;
70102;SDS011;57470;50.034;15.256;2023-04-01T22:03:37;3.65;;;0.60;;
70102;SDS011;57470;50.034;15.256;2023-04-01T22:06:07;3.33;;;1.02;;
70102;SDS011;57470;50.034;15.256;2023-04-01T22:08:53;3.37;;;0.97;;
70102;SDS011;57470;50.034;15.256;2023-04-01T22:16:44;3.97;;;0.80;;
70102;SDS011;57470;50.034;15.256;2023-04-01T22:19:27;3.85;;;0.93;;
70102;SDS011;57470;50.034;15.256;2023-04-01T22:25:15;7.68;;;1.00;;
70102;SDS011;57470;50.034;15.256;2023-04-01T22:27:52;3.60;;;0.90;;
70102;SDS011;57470;50.034;15.256;2023-04-01T22:30:30;4.88;;;1.23;;
70102;SDS011;57470;50.034;15.256;2023-04-01T22:36:17;4.00;;;0.60;;
70102;SDS011;57470;50.034;15.256;2023-04-01T22:44:27;5.97;;;1.50;;
70102;SDS011;57470;50.034;15.256;2023-04-01T22:52:04;4.97;;;1.30;;
70102;SDS011;57470;50.034;15.256;2023-04-01T22:57:28;4.72;;;1.50;;
70102;SDS011;57470;50.034;15.256;2023-04-01T23:00:16;9.02;;;1.67;;
70102;SDS011;57470;50.034;15.256;2023-04-01T23:02:58;6.13;;;2.07;;
70102;SDS011;57470;50.034;15.256;2023-04-01T23:05:42;4.22;;;0.90;;
70102;SDS011;57470;50.034;15.256;2023-04-01T23:11:10;6.55;;;1.55;;
70102;SDS011;57470;50.034;15.256;2023-04-01T23:14:00;4.60;;;1.20;;
70102;SDS011;57470;50.034;15.256;2023-04-01T23:16:30;5.50;;;1.20;;
70102;SDS011;57470;50.034;15.256;2023-04-01T23:21:38;5.10;;;1.50;;
70102;SDS011;57470;50.034;15.256;2023-04-01T23:24:19;4.10;;;0.75;;
70102;SDS011;57470;50.034;15.256;2023-04-01T23:29:39;4.57;;;1.17;;
70102;SDS011;57470;50.034;15.256;2023-04-01T23:32:05;3.13;;;0.70;;
70102;SDS011;57470;50.034;15.256;2023-04-01T23:34:40;3.35;;;0.68;;
70102;SDS011;57470;50.034;15.256;2023-04-01T23:37:13;3.25;;;0.93;;
70102;SDS011;57470;50.034;15.256;2023-04-01T23:39:42;4.13;;;1.10;;
70102;SDS011;57470;50.034;15.256;2023-04-01T23:44:46;3.92;;;0.73;;
70102;SDS011;57470;50.034;15.256;2023-04-01T23:47:18;3.50;;;1.15;;
70102;SDS011;57470;50.034;15.256;2023-04-01T23:49:48;3.10;;;0.68;;
70102;SDS011;57470;50.034;15.256;2023-04-01T23:52:29;3.57;;;1.03;;
70102;SDS011;57470;50.034;15.256;2023-04-01T23:55:03;4.70;;;1.20;;
70102;SDS011;57470;50.034;15.256;2023-04-01T23:57:36;3.25;;;0.70;;
